sensor_id;sensor_type;location;lat;lon;timestamp;pressure;altitude;pressure_sealevel;temperature;humidity
23241;BME280;11789;53.482;9.862;2022-10-16T00:01:45;100973.19;;;12.96;100.00
23241;BME280;11789;53.482;9.862;2022-10-16T00:04:12;100981.88;;;12.95;100.00
23241;BME280;11789;53.482;9.862;2022-10-16T00:06:41;100976.69;;;12.93;100.00
23241;BME280;11789;53.482;9.862;2022-10-16T00:09:08;100977.53;;;12.92;100.00
23241;BME280;11789;53.482;9.862;2022-10-16T00:11:37;100976.69;;;12.92;100.00
23241;BME280;11789;53.482;9.862;2022-10-16T00:14:10;100982.75;;;12.91;100.00
23241;BME280;11789;53.482;9.862;2022-10-16T00:16:36;100975.84;;;12.90;100.00
23241;BME280;11789;53.482;9.862;2022-10-16T00:19:02;100970.69;;;12.88;100.00
23241;BME280;11789;53.482;9.862;2022-10-16T00:21:29;100981.03;;;12.90;100.00
23241;BME280;11789;53.482;9.862;2022-10-16T00:24:01;100978.44;;;12.90;100.00
23241;BME280;11789;53.482;9.862;2022-10-16T00:26:28;100979.31;;;12.90;100.00
23241;BME280;11789;53.482;9.862;2022-10-16T00:28:54;100980.22;;;12.88;100.00
23241;BME280;11789;53.482;9.862;2022-10-16T00:31:21;100981.91;;;12.87;100.00
23241;BME280;11789;53.482;9.862;2022-10-16T00:33:48;100981.94;;;12.86;100.00
23241;BME280;11789;53.482;9.862;2022-10-16T00:36:16;100988.84;;;12.87;100.00
23241;BME280;11789;53.482;9.862;2022-10-16T00:38:44;100987.97;;;12.86;100.00
23241;BME280;11789;53.482;9.862;2022-10-16T00:41:12;100987.13;;;12.86;100.00
23241;BME280;11789;53.482;9.862;2022-10-16T00:43:53;100989.72;;;12.86;100.00
23241;BME280;11789;53.482;9.862;2022-10-16T00:46:38;100999.25;;;12.84;100.00
23241;BME280;11789;53.482;9.862;2022-10-16T00:51:40;101006.19;;;12.82;100.00
23241;BME280;11789;53.482;9.862;2022-10-16T00:54:30;101000.97;;;12.82;100.00
23241;BME280;11789;53.482;9.862;2022-10-16T00:56:58;101000.13;;;12.81;100.00
23241;BME280;11789;53.482;9.862;2022-10-16T00:59:28;100999.25;;;12.84;100.00
23241;BME280;11789;53.482;9.862;2022-10-16T01:01:56;101000.13;;;12.83;100.00
23241;BME280;11789;53.482;9.862;2022-10-16T01:04:23;101012.22;;;12.84;100.00
23241;BME280;11789;53.482;9.862;2022-10-16T01:12:50;101014.84;;;12.81;100.00
23241;BME280;11789;53.482;9.862;2022-10-16T01:15:30;101019.19;;;12.79;100.00
23241;BME280;11789;53.482;9.862;2022-10-16T01:18:24;101018.34;;;12.75;100.00
23241;BME280;11789;53.482;9.862;2022-10-16T01:20:54;101024.41;;;12.74;100.00
23241;BME280;11789;53.482;9.862;2022-10-16T01:23:35;101030.47;;;12.71;100.00
23241;BME280;11789;53.482;9.862;2022-10-16T01:26:31;101020.13;;;12.68;100.00
23241;BME280;11789;53.482;9.862;2022-10-16T01:29:13;101021.84;;;12.66;100.00
23241;BME280;11789;53.482;9.862;2022-10-16T01:31:47;101015.81;;;12.64;100.00
23241;BME280;11789;53.482;9.862;2022-10-16T01:34:18;101021.91;;;12.60;100.00
23241;BME280;11789;53.482;9.862;2022-10-16T01:36:57;101018.47;;;12.58;100.00
23241;BME280;11789;53.482;9.862;2022-10-16T01:39:29;101021.06;;;12.57;100.00
23241;BME280;11789;53.482;9.862;2022-10-16T01:42:05;101023.69;;;12.54;100.00
23241;BME280;11789;53.482;9.862;2022-10-16T01:44:33;101023.69;;;12.52;100.00
23241;BME280;11789;53.482;9.862;2022-10-16T01:47:02;101021.09;;;12.52;100.00
23241;BME280;11789;53.482;9.862;2022-10-16T01:49:32;101016.75;;;12.51;100.00
23241;BME280;11789;53.482;9.862;2022-10-16T01:52:00;101028.00;;;12.52;100.00
23241;BME280;11789;53.482;9.862;2022-10-16T01:54:30;101023.72;;;12.49;100.00
23241;BME280;11789;53.482;9.862;2022-10-16T01:56:58;101031.50;;;12.49;100.00
23241;BME280;11789;53.482;9.862;2022-10-16T01:59:26;101022.00;;;12.48;100.00
23241;BME280;11789;53.482;9.862;2022-10-16T02:01:58;101028.03;;;12.45;100.00
23241;BME280;11789;53.482;9.862;2022-10-16T02:04:32;101028.03;;;12.45;100.00
23241;BME280;11789;53.482;9.862;2022-10-16T02:06:58;101022.84;;;12.45;100.00
23241;BME280;11789;53.482;9.862;2022-10-16T02:09:24;101021.13;;;12.44;100.00
23241;BME280;11789;53.482;9.862;2022-10-16T02:11:53;101017.69;;;12.44;100.00
23241;BME280;11789;53.482;9.862;2022-10-16T02:14:21;101022.03;;;12.42;100.00
23241;BME280;11789;53.482;9.862;2022-10-16T02:16:49;101025.47;;;12.41;100.00
23241;BME280;11789;53.482;9.862;2022-10-16T02:19:16;101022.03;;;12.39;100.00
23241;BME280;11789;53.482;9.862;2022-10-16T02:21:54;101028.09;;;12.38;100.00
23241;BME280;11789;53.482;9.862;2022-10-16T02:24:29;101025.50;;;12.38;100.00
23241;BME280;11789;53.482;9.862;2022-10-16T02:30:16;101025.53;;;12.33;100.00
23241;BME280;11789;53.482;9.862;2022-10-16T02:32:46;101022.09;;;12.30;100.00
23241;BME280;11789;53.482;9.862;2022-10-16T02:35:15;101027.25;;;12.30;100.00
23241;BME280;11789;53.482;9.862;2022-10-16T02:37:42;101029.03;;;12.28;100.00
23241;BME280;11789;53.482;9.862;2022-10-16T02:40:09;101031.59;;;12.26;100.00
23241;BME280;11789;53.482;9.862;2022-10-16T02:42:37;101029.03;;;12.25;100.00
23241;BME280;11789;53.482;9.862;2022-10-16T02:45:04;101026.44;;;12.23;100.00
23241;BME280;11789;53.482;9.862;2022-10-16T02:47:31;101031.62;;;12.25;100.00
23241;BME280;11789;53.482;9.862;2022-10-16T02:49:56;101029.06;;;12.22;100.00
23241;BME280;11789;53.482;9.862;2022-10-16T02:52:22;101028.19;;;12.18;100.00
23241;BME280;11789;53.482;9.862;2022-10-16T02:54:47;101038.56;;;12.18;100.00
23241;BME280;11789;53.482;9.862;2022-10-16T02:57:13;101035.09;;;12.16;100.00
23241;BME280;11789;53.482;9.862;2022-10-16T02:59:38;101032.53;;;12.14;100.00
23241;BME280;11789;53.482;9.862;2022-10-16T03:02:04;101034.28;;;12.12;100.00
23241;BME280;11789;53.482;9.862;2022-10-16T03:04:29;101034.25;;;12.11;100.00
23241;BME280;11789;53.482;9.862;2022-10-16T03:06:55;101031.66;;;12.11;100.00
23241;BME280;11789;53.482;9.862;2022-10-16T03:09:20;101029.97;;;12.08;100.00
23241;BME280;11789;53.482;9.862;2022-10-16T03:11:46;101031.69;;;12.06;100.00
23241;BME280;11789;53.482;9.862;2022-10-16T03:14:11;101021.34;;;12.05;100.00
23241;BME280;11789;53.482;9.862;2022-10-16T03:16:36;101020.47;;;12.04;100.00
23241;BME280;11789;53.482;9.862;2022-10-16T03:19:02;101017.88;;;12.04;100.00
23241;BME280;11789;53.482;9.862;2022-10-16T03:21:27;101020.47;;;12.01;100.00
23241;BME280;11789;53.482;9.862;2022-10-16T03:23:53;101029.97;;;12.01;100.00
23241;BME280;11789;53.482;9.862;2022-10-16T03:26:18;101024.81;;;12.01;100.00
23241;BME280;11789;53.482;9.862;2022-10-16T03:28:44;101019.63;;;11.99;100.00
23241;BME280;11789;53.482;9.862;2022-10-16T03:31:09;101030.00;;;11.98;100.00
23241;BME280;11789;53.482;9.862;2022-10-16T03:33:34;101021.38;;;11.97;100.00
23241;BME280;11789;53.482;9.862;2022-10-16T03:36:00;101028.28;;;11.95;100.00
23241;BME280;11789;53.482;9.862;2022-10-16T03:38:25;101036.94;;;11.94;100.00
23241;BME280;11789;53.482;9.862;2022-10-16T03:40:51;101034.34;;;11.94;100.00
23241;BME280;11789;53.482;9.862;2022-10-16T03:43:16;101034.34;;;11.92;100.00
23241;BME280;11789;53.482;9.862;2022-10-16T03:45:41;101032.63;;;11.91;100.00
23241;BME280;11789;53.482;9.862;2022-10-16T03:48:07;101042.09;;;11.91;100.00
23241;BME280;11789;53.482;9.862;2022-10-16T03:50:32;101048.16;;;11.90;100.00
23241;BME280;11789;53.482;9.862;2022-10-16T03:52:58;101036.94;;;11.89;100.00
23241;BME280;11789;53.482;9.862;2022-10-16T03:55:23;101044.69;;;11.91;100.00
23241;BME280;11789;53.482;9.862;2022-10-16T03:57:48;101036.09;;;11.89;100.00
23241;BME280;11789;53.482;9.862;2022-10-16T04:00:14;101042.97;;;11.90;100.00
23241;BME280;11789;53.482;9.862;2022-10-16T04:02:40;101045.59;;;11.88;100.00
23241;BME280;11789;53.482;9.862;2022-10-16T04:05:06;101053.34;;;11.88;100.00
23241;BME280;11789;53.482;9.862;2022-10-16T04:07:31;101054.22;;;11.87;100.00
23241;BME280;11789;53.482;9.862;2022-10-16T04:09:57;101068.91;;;11.87;100.00
23241;BME280;11789;53.482;9.862;2022-10-16T04:12:24;101064.56;;;11.86;100.00
23241;BME280;11789;53.482;9.862;2022-10-16T04:14:50;101066.31;;;11.85;100.00
23241;BME280;11789;53.482;9.862;2022-10-16T04:17:15;101067.19;;;11.83;100.00
23241;BME280;11789;53.482;9.862;2022-10-16T04:19:41;101070.66;;;11.82;100.00
23241;BME280;11789;53.482;9.862;2022-10-16T04:22:07;101070.63;;;11.79;100.00
23241;BME280;11789;53.482;9.862;2022-10-16T04:24:33;101078.38;;;11.79;100.00
23241;BME280;11789;53.482;9.862;2022-10-16T04:26:58;101080.13;;;11.78;100.00
23241;BME280;11789;53.482;9.862;2022-10-16T04:29:24;101077.53;;;11.80;100.00
23241;BME280;11789;53.482;9.862;2022-10-16T04:31:52;101080.09;;;11.80;100.00
23241;BME280;11789;53.482;9.862;2022-10-16T04:34:18;101081.03;;;11.82;100.00
23241;BME280;11789;53.482;9.862;2022-10-16T04:36:43;101080.13;;;11.81;100.00
23241;BME280;11789;53.482;9.862;2022-10-16T04:39:09;101090.50;;;11.81;100.00
23241;BME280;11789;53.482;9.862;2022-10-16T04:41:34;101087.87;;;11.80;100.00
23241;BME280;11789;53.482;9.862;2022-10-16T04:44:00;101087.03;;;11.78;100.00
23241;BME280;11789;53.482;9.862;2022-10-16T04:46:25;101093.94;;;11.79;100.00
23241;BME280;11789;53.482;9.862;2022-10-16T04:48:51;101096.53;;;11.79;100.00
23241;BME280;11789;53.482;9.862;2022-10-16T04:51:16;101093.91;;;11.80;100.00
23241;BME280;11789;53.482;9.862;2022-10-16T04:53:41;101093.06;;;11.80;100.00
23241;BME280;11789;53.482;9.862;2022-10-16T04:56:07;101091.34;;;11.79;100.00
23241;BME280;11789;53.482;9.862;2022-10-16T04:58:32;101086.16;;;11.80;100.00
23241;BME280;11789;53.482;9.862;2022-10-16T05:00:58;101087.87;;;11.80;100.00
23241;BME280;11789;53.482;9.862;2022-10-16T05:03:26;101093.94;;;11.79;100.00
23241;BME280;11789;53.482;9.862;2022-10-16T05:05:52;101099.13;;;11.79;100.00
23241;BME280;11789;53.482;9.862;2022-10-16T05:08:17;101098.25;;;11.78;100.00
23241;BME280;11789;53.482;9.862;2022-10-16T05:10:44;101096.53;;;11.79;100.00
23241;BME280;11789;53.482;9.862;2022-10-16T05:13:10;101104.28;;;11.79;100.00
23241;BME280;11789;53.482;9.862;2022-10-16T05:15:36;101102.56;;;11.79;100.00
23241;BME280;11789;53.482;9.862;2022-10-16T05:18:02;101112.94;;;11.79;100.00
23241;BME280;11789;53.482;9.862;2022-10-16T05:20:27;101116.38;;;11.78;100.00
23241;BME280;11789;53.482;9.862;2022-10-16T05:22:53;101116.38;;;11.78;100.00
23241;BME280;11789;53.482;9.862;2022-10-16T05:25:19;101120.69;;;11.81;100.00
23241;BME280;11789;53.482;9.862;2022-10-16T05:27:48;101123.28;;;11.81;100.00
23241;BME280;11789;53.482;9.862;2022-10-16T05:30:14;101123.28;;;11.79;100.00
23241;BME280;11789;53.482;9.862;2022-10-16T05:32:40;101126.72;;;11.80;100.00
23241;BME280;11789;53.482;9.862;2022-10-16T05:35:05;101131.03;;;11.81;100.00
23241;BME280;11789;53.482;9.862;2022-10-16T05:37:31;101130.25;;;11.82;100.00
23241;BME280;11789;53.482;9.862;2022-10-16T05:39:56;101127.66;;;11.82;100.00
23241;BME280;11789;53.482;9.862;2022-10-16T05:42:22;101130.25;;;11.82;100.00
23241;BME280;11789;53.482;9.862;2022-10-16T05:44:47;101120.72;;;11.82;100.00
23241;BME280;11789;53.482;9.862;2022-10-16T05:47:13;101125.03;;;11.83;100.00
23241;BME280;11789;53.482;9.862;2022-10-16T05:49:40;101123.31;;;11.84;100.00
23241;BME280;11789;53.482;9.862;2022-10-16T05:52:05;101130.22;;;11.83;100.00
23241;BME280;11789;53.482;9.862;2022-10-16T05:54:31;101125.06;;;11.82;100.00
23241;BME280;11789;53.482;9.862;2022-10-16T05:56:56;101131.09;;;11.84;100.00
23241;BME280;11789;53.482;9.862;2022-10-16T05:59:22;101134.53;;;11.83;100.00
23241;BME280;11789;53.482;9.862;2022-10-16T06:01:47;101131.94;;;11.84;100.00
23241;BME280;11789;53.482;9.862;2022-10-16T06:04:13;101126.75;;;11.86;100.00
23241;BME280;11789;53.482;9.862;2022-10-16T06:06:38;101132.81;;;11.89;100.00
23241;BME280;11789;53.482;9.862;2022-10-16T06:09:04;101134.53;;;11.92;100.00
23241;BME280;11789;53.482;9.862;2022-10-16T06:11:31;101144.03;;;11.91;100.00
23241;BME280;11789;53.482;9.862;2022-10-16T06:13:59;101137.97;;;11.91;100.00
23241;BME280;11789;53.482;9.862;2022-10-16T06:16:27;101136.25;;;11.93;100.00
23241;BME280;11789;53.482;9.862;2022-10-16T06:18:53;101138.84;;;11.93;100.00
23241;BME280;11789;53.482;9.862;2022-10-16T06:21:22;101144.88;;;11.93;100.00
23241;BME280;11789;53.482;9.862;2022-10-16T06:23:50;101152.66;;;11.93;100.00
23241;BME280;11789;53.482;9.862;2022-10-16T06:26:19;101154.38;;;11.94;100.00
23241;BME280;11789;53.482;9.862;2022-10-16T06:28:46;101156.09;;;11.95;100.00
23241;BME280;11789;53.482;9.862;2022-10-16T06:31:12;101154.38;;;11.94;100.00
23241;BME280;11789;53.482;9.862;2022-10-16T06:33:38;101150.06;;;11.93;100.00
23241;BME280;11789;53.482;9.862;2022-10-16T06:36:07;101151.81;;;11.93;100.00
23241;BME280;11789;53.482;9.862;2022-10-16T06:38:34;101144.03;;;11.93;100.00
23241;BME280;11789;53.482;9.862;2022-10-16T06:41:00;101147.47;;;11.93;100.00
23241;BME280;11789;53.482;9.862;2022-10-16T06:43:25;101150.94;;;11.97;100.00
23241;BME280;11789;53.482;9.862;2022-10-16T06:45:56;101156.97;;;11.99;100.00
23241;BME280;11789;53.482;9.862;2022-10-16T06:48:22;101167.34;;;12.02;100.00
23241;BME280;11789;53.482;9.862;2022-10-16T06:51:15;101175.97;;;12.04;100.00
23241;BME280;11789;53.482;9.862;2022-10-16T06:53:43;101172.50;;;12.10;100.00
23241;BME280;11789;53.482;9.862;2022-10-16T06:56:10;101174.97;;;12.48;100.00
23241;BME280;11789;53.482;9.862;2022-10-16T06:58:36;101189.53;;;12.77;100.00
23241;BME280;11789;53.482;9.862;2022-10-16T07:01:01;101191.22;;;12.87;100.00
23241;BME280;11789;53.482;9.862;2022-10-16T07:03:27;101191.97;;;13.10;100.00
23241;BME280;11789;53.482;9.862;2022-10-16T07:05:52;101199.66;;;13.32;100.00
23241;BME280;11789;53.482;9.862;2022-10-16T07:08:18;101202.19;;;13.44;100.00
23241;BME280;11789;53.482;9.862;2022-10-16T07:10:43;101201.91;;;13.77;100.00
23241;BME280;11789;53.482;9.862;2022-10-16T07:13:09;101197.91;;;14.34;97.53
23241;BME280;11789;53.482;9.862;2022-10-16T07:15:38;101209.44;;;14.07;98.33
23241;BME280;11789;53.482;9.862;2022-10-16T07:18:03;101202.22;;;16.17;88.39
23241;BME280;11789;53.482;9.862;2022-10-16T07:20:29;101205.72;;;17.80;78.90
23241;BME280;11789;53.482;9.862;2022-10-16T07:22:54;101212.03;;;17.68;76.31
23241;BME280;11789;53.482;9.862;2022-10-16T07:25:20;101209.38;;;16.05;82.25
23241;BME280;11789;53.482;9.862;2022-10-16T07:27:45;101212.09;;;14.85;88.43
23241;BME280;11789;53.482;9.862;2022-10-16T07:30:10;101225.72;;;14.24;92.72
23241;BME280;11789;53.482;9.862;2022-10-16T07:32:36;101217.38;;;13.94;95.67
23241;BME280;11789;53.482;9.862;2022-10-16T07:35:02;101229.63;;;13.77;97.94
23241;BME280;11789;53.482;9.862;2022-10-16T07:37:27;101233.19;;;13.67;99.19
23241;BME280;11789;53.482;9.862;2022-10-16T07:39:52;101240.13;;;13.65;99.84
23241;BME280;11789;53.482;9.862;2022-10-16T07:42:18;101242.72;;;13.63;100.00
23241;BME280;11789;53.482;9.862;2022-10-16T07:44:45;101238.41;;;13.62;100.00
23241;BME280;11789;53.482;9.862;2022-10-16T07:47:10;101249.66;;;13.66;100.00
23241;BME280;11789;53.482;9.862;2022-10-16T07:49:36;101251.31;;;13.73;100.00
23241;BME280;11789;53.482;9.862;2022-10-16T07:52:01;101253.91;;;13.73;100.00
23241;BME280;11789;53.482;9.862;2022-10-16T07:54:26;101249.63;;;13.70;100.00
23241;BME280;11789;53.482;9.862;2022-10-16T07:56:52;101246.16;;;13.67;100.00
23241;BME280;11789;53.482;9.862;2022-10-16T07:59:17;101256.53;;;13.71;100.00
23241;BME280;11789;53.482;9.862;2022-10-16T08:01:43;101255.66;;;13.74;100.00
23241;BME280;11789;53.482;9.862;2022-10-16T08:04:09;101259.97;;;13.76;100.00
23241;BME280;11789;53.482;9.862;2022-10-16T08:06:36;101257.34;;;13.76;100.00
23241;BME280;11789;53.482;9.862;2022-10-16T08:09:02;101261.66;;;13.81;100.00
23241;BME280;11789;53.482;9.862;2022-10-16T08:11:28;101277.22;;;13.82;100.00
23241;BME280;11789;53.482;9.862;2022-10-16T08:13:53;101277.25;;;13.81;100.00
23241;BME280;11789;53.482;9.862;2022-10-16T08:16:19;101273.84;;;13.75;100.00
23241;BME280;11789;53.482;9.862;2022-10-16T08:18:44;101271.25;;;13.71;100.00
23241;BME280;11789;53.482;9.862;2022-10-16T08:21:14;101287.75;;;13.65;100.00
23241;BME280;11789;53.482;9.862;2022-10-16T08:23:40;101279.97;;;13.62;100.00
23241;BME280;11789;53.482;9.862;2022-10-16T08:26:07;101286.88;;;13.63;100.00
23241;BME280;11789;53.482;9.862;2022-10-16T08:28:33;101286.88;;;13.66;100.00
23241;BME280;11789;53.482;9.862;2022-10-16T08:31:13;101291.16;;;13.73;100.00
23241;BME280;11789;53.482;9.862;2022-10-16T08:33:41;101287.59;;;13.84;100.00
23241;BME280;11789;53.482;9.862;2022-10-16T08:36:09;101292.81;;;13.84;100.00
23241;BME280;11789;53.482;9.862;2022-10-16T08:38:35;101293.59;;;13.96;100.00
23241;BME280;11789;53.482;9.862;2022-10-16T08:41:39;101294.37;;;14.06;100.00
23241;BME280;11789;53.482;9.862;2022-10-16T08:44:58;101293.47;;;15.01;96.39
23241;BME280;11789;53.482;9.862;2022-10-16T08:50:24;101297.34;;;14.63;97.03
23241;BME280;11789;53.482;9.862;2022-10-16T08:52:52;101298.94;;;14.76;96.89
23241;BME280;11789;53.482;9.862;2022-10-16T08:55:33;101298.78;;;14.92;96.78
23241;BME280;11789;53.482;9.862;2022-10-16T08:58:10;101305.78;;;14.87;95.93
23241;BME280;11789;53.482;9.862;2022-10-16T09:00:38;101301.53;;;14.78;95.88
23241;BME280;11789;53.482;9.862;2022-10-16T09:03:17;101308.50;;;14.76;95.79
23241;BME280;11789;53.482;9.862;2022-10-16T09:11:58;101324.09;;;14.77;96.45
23241;BME280;11789;53.482;9.862;2022-10-16T09:20:18;101329.88;;;15.02;94.98
23241;BME280;11789;53.482;9.862;2022-10-16T09:22:45;101334.19;;;15.05;95.07
23241;BME280;11789;53.482;9.862;2022-10-16T09:25:16;101338.44;;;15.12;94.21
23241;BME280;11789;53.482;9.862;2022-10-16T09:27:45;101341.87;;;15.17;93.57
23241;BME280;11789;53.482;9.862;2022-10-16T09:30:19;101338.41;;;15.17;91.55
23241;BME280;11789;53.482;9.862;2022-10-16T09:32:50;101340.94;;;15.20;89.45
23241;BME280;11789;53.482;9.862;2022-10-16T09:35:20;101350.47;;;15.22;90.10
23241;BME280;11789;53.482;9.862;2022-10-16T09:37:50;101357.44;;;15.20;88.79
23241;BME280;11789;53.482;9.862;2022-10-16T09:40:31;101352.31;;;15.14;89.23
23241;BME280;11789;53.482;9.862;2022-10-16T09:43:07;101350.66;;;15.07;89.93
23241;BME280;11789;53.482;9.862;2022-10-16T09:45:39;101354.19;;;15.00;90.47
23241;BME280;11789;53.482;9.862;2022-10-16T09:48:12;101359.50;;;14.95;90.97
23241;BME280;11789;53.482;9.862;2022-10-16T09:50:38;101354.28;;;14.94;91.27
23241;BME280;11789;53.482;9.862;2022-10-16T09:53:14;101360.44;;;14.87;91.34
23241;BME280;11789;53.482;9.862;2022-10-16T09:55:53;101366.53;;;14.86;91.90
23241;BME280;11789;53.482;9.862;2022-10-16T09:58:22;101379.53;;;14.87;92.45
23241;BME280;11789;53.482;9.862;2022-10-16T10:00:55;101375.19;;;14.86;92.06
23241;BME280;11789;53.482;9.862;2022-10-16T10:03:34;101373.50;;;14.79;92.13
23241;BME280;11789;53.482;9.862;2022-10-16T10:06:14;101383.94;;;14.79;92.46
23241;BME280;11789;53.482;9.862;2022-10-16T10:08:53;101386.50;;;14.82;92.87
23241;BME280;11789;53.482;9.862;2022-10-16T10:11:36;101384.84;;;14.76;93.73
23241;BME280;11789;53.482;9.862;2022-10-16T10:14:08;101383.06;;;14.80;94.06
23241;BME280;11789;53.482;9.862;2022-10-16T10:16:39;101377.88;;;14.78;93.30
23241;BME280;11789;53.482;9.862;2022-10-16T10:19:14;101382.19;;;14.81;92.50
23241;BME280;11789;53.482;9.862;2022-10-16T10:21:40;101387.41;;;14.78;92.11
23241;BME280;11789;53.482;9.862;2022-10-16T10:24:10;101399.50;;;14.85;92.07
23241;BME280;11789;53.482;9.862;2022-10-16T10:26:35;101391.59;;;14.94;91.68
23241;BME280;11789;53.482;9.862;2022-10-16T10:31:47;101404.59;;;14.94;92.12
23241;BME280;11789;53.482;9.862;2022-10-16T10:34:42;101397.59;;;15.01;91.85
23241;BME280;11789;53.482;9.862;2022-10-16T10:37:51;101399.28;;;15.07;91.92
23241;BME280;11789;53.482;9.862;2022-10-16T10:40:45;101399.19;;;15.16;90.15
23241;BME280;11789;53.482;9.862;2022-10-16T10:45:47;101396.56;;;15.17;87.21
23241;BME280;11789;53.482;9.862;2022-10-16T10:51:21;101408.81;;;15.08;88.00
23241;BME280;11789;53.482;9.862;2022-10-16T10:54:35;101411.41;;;15.08;88.31
23241;BME280;11789;53.482;9.862;2022-10-16T10:57:14;101413.06;;;15.16;88.66
23241;BME280;11789;53.482;9.862;2022-10-16T11:02:38;101414.72;;;15.23;87.25
23241;BME280;11789;53.482;9.862;2022-10-16T11:05:31;101406.00;;;15.24;88.41
23241;BME280;11789;53.482;9.862;2022-10-16T11:08:08;101412.84;;;15.35;87.85
23241;BME280;11789;53.482;9.862;2022-10-16T11:13:23;101414.44;;;15.48;82.25
23241;BME280;11789;53.482;9.862;2022-10-16T11:15:54;101411.84;;;15.46;83.29
23241;BME280;11789;53.482;9.862;2022-10-16T11:18:42;101416.22;;;15.44;83.37
23241;BME280;11789;53.482;9.862;2022-10-16T11:21:13;101417.06;;;15.46;83.33
23241;BME280;11789;53.482;9.862;2022-10-16T11:23:43;101420.41;;;15.57;82.75
23241;BME280;11789;53.482;9.862;2022-10-16T11:26:17;101431.72;;;15.56;82.92
23241;BME280;11789;53.482;9.862;2022-10-16T11:28:48;101437.78;;;15.57;82.71
23241;BME280;11789;53.482;9.862;2022-10-16T11:31:37;101436.00;;;15.59;80.37
23241;BME280;11789;53.482;9.862;2022-10-16T11:36:46;101449.94;;;15.58;81.85
23241;BME280;11789;53.482;9.862;2022-10-16T11:39:26;101450.81;;;15.57;82.20
23241;BME280;11789;53.482;9.862;2022-10-16T11:42:10;101449.03;;;15.59;83.40
23241;BME280;11789;53.482;9.862;2022-10-16T11:47:45;101458.47;;;15.71;84.11
23241;BME280;11789;53.482;9.862;2022-10-16T11:55:43;101462.50;;;15.96;78.72
23241;BME280;11789;53.482;9.862;2022-10-16T11:58:19;101473.03;;;15.89;77.23
23241;BME280;11789;53.482;9.862;2022-10-16T12:00:57;101473.16;;;15.79;76.83
23241;BME280;11789;53.482;9.862;2022-10-16T12:03:43;101466.31;;;15.72;76.04
23241;BME280;11789;53.482;9.862;2022-10-16T12:06:29;101483.72;;;15.66;76.13
23241;BME280;11789;53.482;9.862;2022-10-16T12:08:59;101485.53;;;15.59;76.35
23241;BME280;11789;53.482;9.862;2022-10-16T12:14:06;101493.50;;;15.45;75.49
23241;BME280;11789;53.482;9.862;2022-10-16T12:16:32;101501.37;;;15.39;75.76
23241;BME280;11789;53.482;9.862;2022-10-16T12:19:15;101498.88;;;15.31;76.62
23241;BME280;11789;53.482;9.862;2022-10-16T12:21:42;101502.34;;;15.29;75.99
23241;BME280;11789;53.482;9.862;2022-10-16T12:24:21;101509.28;;;15.30;76.45
23241;BME280;11789;53.482;9.862;2022-10-16T12:26:51;101514.50;;;15.31;76.85
23241;BME280;11789;53.482;9.862;2022-10-16T12:29:39;101519.69;;;15.30;77.57
23241;BME280;11789;53.482;9.862;2022-10-16T12:32:30;101513.69;;;15.26;77.90
23241;BME280;11789;53.482;9.862;2022-10-16T12:34:57;101513.62;;;15.32;76.35
23241;BME280;11789;53.482;9.862;2022-10-16T12:37:32;101506.62;;;15.35;76.36
23241;BME280;11789;53.482;9.862;2022-10-16T12:39:59;101516.19;;;15.37;76.44
23241;BME280;11789;53.482;9.862;2022-10-16T12:42:35;101523.94;;;15.40;76.46
23241;BME280;11789;53.482;9.862;2022-10-16T12:45:22;101531.75;;;15.42;76.64
23241;BME280;11789;53.482;9.862;2022-10-16T12:47:51;101524.81;;;15.42;76.07
23241;BME280;11789;53.482;9.862;2022-10-16T12:50:38;101534.38;;;15.39;75.49
23241;BME280;11789;53.482;9.862;2022-10-16T12:53:28;101535.31;;;15.36;76.29
23241;BME280;11789;53.482;9.862;2022-10-16T12:56:04;101536.19;;;15.32;76.48
23241;BME280;11789;53.482;9.862;2022-10-16T13:04:17;101542.22;;;15.39;77.66
23241;BME280;11789;53.482;9.862;2022-10-16T13:06:53;101538.69;;;15.43;76.18
23241;BME280;11789;53.482;9.862;2022-10-16T13:22:59;101564.72;;;15.47;76.65
23241;BME280;11789;53.482;9.862;2022-10-16T13:28:31;101578.66;;;15.42;78.08
23241;BME280;11789;53.482;9.862;2022-10-16T13:30:59;101576.91;;;15.42;78.08
23241;BME280;11789;53.482;9.862;2022-10-16T13:33:37;101576.00;;;15.45;75.37
23241;BME280;11789;53.482;9.862;2022-10-16T13:36:05;101582.97;;;15.44;75.00
23241;BME280;11789;53.482;9.862;2022-10-16T13:38:36;101584.72;;;15.41;74.54
23241;BME280;11789;53.482;9.862;2022-10-16T13:41:13;101588.28;;;15.37;74.41
23241;BME280;11789;53.482;9.862;2022-10-16T13:43:44;101594.38;;;15.32;75.08
23241;BME280;11789;53.482;9.862;2022-10-16T13:46:17;101599.56;;;15.34;74.46
23241;BME280;11789;53.482;9.862;2022-10-16T13:48:43;101603.06;;;15.33;74.92
23241;BME280;11789;53.482;9.862;2022-10-16T13:51:17;101603.94;;;15.30;75.97
23241;BME280;11789;53.482;9.862;2022-10-16T13:53:44;101607.44;;;15.28;76.47
23241;BME280;11789;53.482;9.862;2022-10-16T13:56:13;101602.22;;;15.28;76.90
23241;BME280;11789;53.482;9.862;2022-10-16T13:58:39;101601.38;;;15.26;77.41
23241;BME280;11789;53.482;9.862;2022-10-16T14:03:39;101615.28;;;15.26;77.79
23241;BME280;11789;53.482;9.862;2022-10-16T14:06:12;101617.00;;;15.27;78.40
23241;BME280;11789;53.482;9.862;2022-10-16T14:08:42;101618.72;;;15.28;77.85
23241;BME280;11789;53.482;9.862;2022-10-16T14:11:09;101603.09;;;15.28;77.16
23241;BME280;11789;53.482;9.862;2022-10-16T14:13:38;101625.63;;;15.34;75.80
23241;BME280;11789;53.482;9.862;2022-10-16T14:16:09;101625.63;;;15.34;75.23
23241;BME280;11789;53.482;9.862;2022-10-16T14:18:38;101626.50;;;15.33;75.12